sensor_id;sensor_type;location;lat;lon;timestamp;P1;durP1;ratioP1;P2;durP2;ratioP2
31758;SDS011;36334;51.366;0.020;2022-12-15T00:00:48;15.15;;;7.22;;
31758;SDS011;36334;51.366;0.020;2022-12-15T00:04:26;13.68;;;7.00;;
31758;SDS011;36334;51.366;0.020;2022-12-15T00:07:38;13.73;;;7.55;;
31758;SDS011;36334;51.366;0.020;2022-12-15T00:10:43;10.45;;;7.20;;
31758;SDS011;36334;51.366;0.020;2022-12-15T00:13:51;10.20;;;6.28;;
31758;SDS011;36334;51.366;0.020;2022-12-15T00:17:03;12.23;;;6.68;;
31758;SDS011;36334;51.366;0.020;2022-12-15T00:20:17;11.93;;;7.07;;
31758;SDS011;36334;51.366;0.020;2022-12-15T00:28:03;15.93;;;6.93;;
31758;SDS011;36334;51.366;0.020;2022-12-15T00:32:40;12.68;;;7.03;;
31758;SDS011;36334;51.366;0.020;2022-12-15T00:35:52;15.27;;;6.95;;
31758;SDS011;36334;51.366;0.020;2022-12-15T00:39:47;15.38;;;7.28;;
31758;SDS011;36334;51.366;0.020;2022-12-15T00:43:05;19.15;;;8.88;;
31758;SDS011;36334;51.366;0.020;2022-12-15T00:46:06;17.73;;;7.88;;
31758;SDS011;36334;51.366;0.020;2022-12-15T00:50:18;15.63;;;7.18;;
31758;SDS011;36334;51.366;0.020;2022-12-15T00:53:29;14.43;;;6.25;;
31758;SDS011;36334;51.366;0.020;2022-12-15T00:56:34;11.13;;;6.43;;
31758;SDS011;36334;51.366;0.020;2022-12-15T00:59:46;19.40;;;6.85;;
31758;SDS011;36334;51.366;0.020;2022-12-15T01:07:49;15.93;;;8.15;;
31758;SDS011;36334;51.366;0.020;2022-12-15T01:10:59;16.60;;;8.57;;
31758;SDS011;36334;51.366;0.020;2022-12-15T01:14:10;18.27;;;8.93;;
31758;SDS011;36334;51.366;0.020;2022-12-15T01:17:42;15.40;;;8.02;;
31758;SDS011;36334;51.366;0.020;2022-12-15T01:25:06;17.30;;;8.15;;
31758;SDS011;36334;51.366;0.020;2022-12-15T01:28:09;18.45;;;7.70;;
31758;SDS011;36334;51.366;0.020;2022-12-15T01:35:20;17.45;;;9.00;;
31758;SDS011;36334;51.366;0.020;2022-12-15T01:39:39;19.23;;;8.43;;
31758;SDS011;36334;51.366;0.020;2022-12-15T01:42:47;17.98;;;8.88;;
31758;SDS011;36334;51.366;0.020;2022-12-15T01:48:59;18.00;;;8.68;;
31758;SDS011;36334;51.366;0.020;2022-12-15T01:52:16;13.73;;;7.60;;
31758;SDS011;36334;51.366;0.020;2022-12-15T01:55:28;17.50;;;9.07;;
31758;SDS011;36334;51.366;0.020;2022-12-15T01:58:16;16.17;;;7.35;;
31758;SDS011;36334;51.366;0.020;2022-12-15T02:01:17;16.27;;;7.53;;
31758;SDS011;36334;51.366;0.020;2022-12-15T02:04:54;18.73;;;7.95;;
31758;SDS011;36334;51.366;0.020;2022-12-15T02:08:01;15.27;;;6.95;;
31758;SDS011;36334;51.366;0.020;2022-12-15T02:21:01;15.95;;;7.60;;
31758;SDS011;36334;51.366;0.020;2022-12-15T02:27:11;15.80;;;8.10;;
31758;SDS011;36334;51.366;0.020;2022-12-15T02:31:06;14.00;;;8.38;;
31758;SDS011;36334;51.366;0.020;2022-12-15T02:37:40;19.33;;;7.97;;
31758;SDS011;36334;51.366;0.020;2022-12-15T02:41:32;16.02;;;7.95;;
31758;SDS011;36334;51.366;0.020;2022-12-15T02:47:38;13.00;;;6.85;;
31758;SDS011;36334;51.366;0.020;2022-12-15T02:54:23;15.80;;;8.77;;
31758;SDS011;36334;51.366;0.020;2022-12-15T02:57:24;11.52;;;7.30;;
31758;SDS011;36334;51.366;0.020;2022-12-15T03:02:14;16.52;;;7.13;;
31758;SDS011;36334;51.366;0.020;2022-12-15T03:05:22;15.30;;;6.93;;
31758;SDS011;36334;51.366;0.020;2022-12-15T03:09:24;14.40;;;8.35;;
31758;SDS011;36334;51.366;0.020;2022-12-15T03:13:50;11.68;;;7.13;;
31758;SDS011;36334;51.366;0.020;2022-12-15T03:17:38;11.88;;;6.93;;
31758;SDS011;36334;51.366;0.020;2022-12-15T03:20:25;16.48;;;7.85;;
31758;SDS011;36334;51.366;0.020;2022-12-15T03:23:12;18.55;;;9.18;;
31758;SDS011;36334;51.366;0.020;2022-12-15T03:25:58;21.60;;;8.27;;
31758;SDS011;36334;51.366;0.020;2022-12-15T03:28:44;19.48;;;8.15;;
31758;SDS011;36334;51.366;0.020;2022-12-15T03:31:33;14.75;;;8.25;;
31758;SDS011;36334;51.366;0.020;2022-12-15T03:34:29;16.13;;;7.22;;
31758;SDS011;36334;51.366;0.020;2022-12-15T03:37:16;15.15;;;8.10;;
31758;SDS011;36334;51.366;0.020;2022-12-15T03:40:02;14.70;;;7.95;;
31758;SDS011;36334;51.366;0.020;2022-12-15T03:42:52;17.05;;;7.90;;
31758;SDS011;36334;51.366;0.020;2022-12-15T03:45:38;12.68;;;7.32;;
31758;SDS011;36334;51.366;0.020;2022-12-15T03:48:25;11.65;;;7.28;;
31758;SDS011;36334;51.366;0.020;2022-12-15T03:51:19;12.50;;;7.57;;
31758;SDS011;36334;51.366;0.020;2022-12-15T03:54:23;12.48;;;6.72;;
31758;SDS011;36334;51.366;0.020;2022-12-15T03:57:20;13.38;;;8.05;;
31758;SDS011;36334;51.366;0.020;2022-12-15T04:00:14;15.30;;;7.68;;
31758;SDS011;36334;51.366;0.020;2022-12-15T04:03:11;17.75;;;7.75;;
31758;SDS011;36334;51.366;0.020;2022-12-15T04:06:30;15.45;;;8.07;;
31758;SDS011;36334;51.366;0.020;2022-12-15T04:09:16;18.02;;;8.77;;
31758;SDS011;36334;51.366;0.020;2022-12-15T04:12:13;14.68;;;7.97;;
31758;SDS011;36334;51.366;0.020;2022-12-15T04:23:29;17.45;;;7.10;;
31758;SDS011;36334;51.366;0.020;2022-12-15T04:27:12;18.50;;;8.07;;
31758;SDS011;36334;51.366;0.020;2022-12-15T04:30:26;17.73;;;6.90;;
31758;SDS011;36334;51.366;0.020;2022-12-15T04:35:06;16.65;;;8.57;;
31758;SDS011;36334;51.366;0.020;2022-12-15T04:38:11;18.42;;;7.80;;
31758;SDS011;36334;51.366;0.020;2022-12-15T04:42:47;14.00;;;7.57;;
31758;SDS011;36334;51.366;0.020;2022-12-15T04:46:11;13.95;;;9.38;;
31758;SDS011;36334;51.366;0.020;2022-12-15T04:49:46;15.93;;;7.88;;
31758;SDS011;36334;51.366;0.020;2022-12-15T04:58:15;14.40;;;8.05;;
31758;SDS011;36334;51.366;0.020;2022-12-15T05:01:20;19.67;;;8.40;;
31758;SDS011;36334;51.366;0.020;2022-12-15T05:04:25;16.75;;;7.97;;
31758;SDS011;36334;51.366;0.020;2022-12-15T05:07:30;12.48;;;7.20;;
31758;SDS011;36334;51.366;0.020;2022-12-15T05:10:34;11.15;;;6.38;;
31758;SDS011;36334;51.366;0.020;2022-12-15T05:13:39;18.85;;;10.35;;
31758;SDS011;36334;51.366;0.020;2022-12-15T05:19:50;16.50;;;8.23;;
31758;SDS011;36334;51.366;0.020;2022-12-15T05:22:55;16.35;;;7.70;;
31758;SDS011;36334;51.366;0.020;2022-12-15T05:26:00;15.32;;;8.13;;
31758;SDS011;36334;51.366;0.020;2022-12-15T05:29:04;20.02;;;8.65;;
31758;SDS011;36334;51.366;0.020;2022-12-15T05:32:09;14.45;;;8.20;;
31758;SDS011;36334;51.366;0.020;2022-12-15T05:35:00;16.02;;;7.97;;
31758;SDS011;36334;51.366;0.020;2022-12-15T05:37:47;16.80;;;7.90;;
31758;SDS011;36334;51.366;0.020;2022-12-15T05:40:33;15.55;;;7.53;;
31758;SDS011;36334;51.366;0.020;2022-12-15T05:43:19;16.13;;;7.65;;
31758;SDS011;36334;51.366;0.020;2022-12-15T05:46:11;10.35;;;6.97;;
31758;SDS011;36334;51.366;0.020;2022-12-15T05:49:00;17.35;;;7.80;;
31758;SDS011;36334;51.366;0.020;2022-12-15T05:51:49;19.25;;;6.95;;
31758;SDS011;36334;51.366;0.020;2022-12-15T05:54:35;13.63;;;7.15;;
31758;SDS011;36334;51.366;0.020;2022-12-15T05:57:24;14.60;;;7.00;;
31758;SDS011;36334;51.366;0.020;2022-12-15T06:00:11;14.13;;;7.25;;
31758;SDS011;36334;51.366;0.020;2022-12-15T06:02:57;13.57;;;7.45;;
31758;SDS011;36334;51.366;0.020;2022-12-15T06:05:44;16.80;;;8.13;;
31758;SDS011;36334;51.366;0.020;2022-12-15T06:08:34;17.20;;;8.38;;
31758;SDS011;36334;51.366;0.020;2022-12-15T06:11:22;19.42;;;8.25;;
31758;SDS011;36334;51.366;0.020;2022-12-15T06:14:09;16.52;;;9.68;;
31758;SDS011;36334;51.366;0.020;2022-12-15T06:16:56;14.32;;;7.75;;
31758;SDS011;36334;51.366;0.020;2022-12-15T06:19:43;17.92;;;8.00;;
31758;SDS011;36334;51.366;0.020;2022-12-15T06:22:29;16.10;;;9.18;;
31758;SDS011;36334;51.366;0.020;2022-12-15T06:25:16;19.50;;;8.30;;
31758;SDS011;36334;51.366;0.020;2022-12-15T06:28:02;16.58;;;7.43;;
31758;SDS011;36334;51.366;0.020;2022-12-15T06:30:59;19.88;;;7.32;;
31758;SDS011;36334;51.366;0.020;2022-12-15T06:33:51;16.35;;;8.52;;
31758;SDS011;36334;51.366;0.020;2022-12-15T06:36:50;17.17;;;7.93;;
31758;SDS011;36334;51.366;0.020;2022-12-15T06:39:36;17.95;;;8.68;;
31758;SDS011;36334;51.366;0.020;2022-12-15T06:42:22;15.43;;;7.93;;
31758;SDS011;36334;51.366;0.020;2022-12-15T06:45:09;16.88;;;8.82;;
31758;SDS011;36334;51.366;0.020;2022-12-15T06:47:55;16.63;;;8.85;;
31758;SDS011;36334;51.366;0.020;2022-12-15T06:50:46;16.65;;;10.55;;
31758;SDS011;36334;51.366;0.020;2022-12-15T06:53:35;17.30;;;8.75;;
31758;SDS011;36334;51.366;0.020;2022-12-15T06:56:24;17.73;;;8.15;;
31758;SDS011;36334;51.366;0.020;2022-12-15T06:59:18;13.57;;;8.10;;
31758;SDS011;36334;51.366;0.020;2022-12-15T07:02:05;23.90;;;8.32;;
31758;SDS011;36334;51.366;0.020;2022-12-15T07:04:59;15.23;;;8.60;;
31758;SDS011;36334;51.366;0.020;2022-12-15T07:07:46;21.45;;;9.32;;
31758;SDS011;36334;51.366;0.020;2022-12-15T07:10:33;16.35;;;8.85;;
31758;SDS011;36334;51.366;0.020;2022-12-15T07:13:22;15.10;;;8.23;;
31758;SDS011;36334;51.366;0.020;2022-12-15T07:16:08;18.63;;;8.85;;
31758;SDS011;36334;51.366;0.020;2022-12-15T07:18:56;15.55;;;8.77;;
31758;SDS011;36334;51.366;0.020;2022-12-15T07:21:43;18.48;;;9.23;;
31758;SDS011;36334;51.366;0.020;2022-12-15T07:24:29;16.38;;;9.43;;
31758;SDS011;36334;51.366;0.020;2022-12-15T07:27:15;15.32;;;7.90;;
31758;SDS011;36334;51.366;0.020;2022-12-15T07:30:02;15.90;;;8.82;;
31758;SDS011;36334;51.366;0.020;2022-12-15T07:32:49;15.75;;;9.50;;
31758;SDS011;36334;51.366;0.020;2022-12-15T07:35:35;20.90;;;9.70;;
31758;SDS011;36334;51.366;0.020;2022-12-15T07:38:21;18.77;;;9.00;;
31758;SDS011;36334;51.366;0.020;2022-12-15T07:41:08;15.80;;;7.85;;
31758;SDS011;36334;51.366;0.020;2022-12-15T07:43:54;14.93;;;8.00;;
31758;SDS011;36334;51.366;0.020;2022-12-15T07:46:43;26.40;;;8.73;;
31758;SDS011;36334;51.366;0.020;2022-12-15T07:49:42;20.15;;;9.05;;
31758;SDS011;36334;51.366;0.020;2022-12-15T07:52:41;15.30;;;8.38;;
31758;SDS011;36334;51.366;0.020;2022-12-15T07:55:35;16.17;;;9.13;;
31758;SDS011;36334;51.366;0.020;2022-12-15T07:58:51;19.95;;;8.77;;
31758;SDS011;36334;51.366;0.020;2022-12-15T08:01:37;17.40;;;7.88;;
31758;SDS011;36334;51.366;0.020;2022-12-15T08:04:24;17.65;;;9.23;;
31758;SDS011;36334;51.366;0.020;2022-12-15T08:07:11;20.70;;;10.48;;
31758;SDS011;36334;51.366;0.020;2022-12-15T08:09:58;21.67;;;8.70;;
31758;SDS011;36334;51.366;0.020;2022-12-15T08:12:44;18.70;;;9.95;;
31758;SDS011;36334;51.366;0.020;2022-12-15T08:15:35;19.50;;;9.68;;
31758;SDS011;36334;51.366;0.020;2022-12-15T08:18:42;22.10;;;9.32;;
31758;SDS011;36334;51.366;0.020;2022-12-15T08:21:31;15.35;;;9.60;;
31758;SDS011;36334;51.366;0.020;2022-12-15T08:24:29;16.92;;;9.55;;
31758;SDS011;36334;51.366;0.020;2022-12-15T08:27:29;18.80;;;11.25;;
31758;SDS011;36334;51.366;0.020;2022-12-15T08:30:37;23.35;;;10.15;;
31758;SDS011;36334;51.366;0.020;2022-12-15T08:34:02;22.60;;;9.15;;
31758;SDS011;36334;51.366;0.020;2022-12-15T08:36:50;21.08;;;9.85;;
31758;SDS011;36334;51.366;0.020;2022-12-15T08:40:03;17.65;;;10.40;;
31758;SDS011;36334;51.366;0.020;2022-12-15T08:42:56;17.10;;;10.50;;
31758;SDS011;36334;51.366;0.020;2022-12-15T08:45:59;21.52;;;9.95;;
31758;SDS011;36334;51.366;0.020;2022-12-15T08:48:48;18.38;;;10.48;;
31758;SDS011;36334;51.366;0.020;2022-12-15T08:51:35;20.80;;;11.02;;
31758;SDS011;36334;51.366;0.020;2022-12-15T08:54:24;20.55;;;9.95;;
31758;SDS011;36334;51.366;0.020;2022-12-15T08:57:12;20.23;;;10.63;;
31758;SDS011;36334;51.366;0.020;2022-12-15T09:00:02;30.50;;;13.43;;
31758;SDS011;36334;51.366;0.020;2022-12-15T09:02:49;19.75;;;10.75;;
31758;SDS011;36334;51.366;0.020;2022-12-15T09:05:36;24.40;;;12.73;;
31758;SDS011;36334;51.366;0.020;2022-12-15T09:08:23;22.50;;;11.20;;
31758;SDS011;36334;51.366;0.020;2022-12-15T09:11:09;21.58;;;10.93;;
31758;SDS011;36334;51.366;0.020;2022-12-15T09:13:56;23.58;;;11.73;;
31758;SDS011;36334;51.366;0.020;2022-12-15T09:16:43;22.88;;;13.68;;
31758;SDS011;36334;51.366;0.020;2022-12-15T09:19:29;26.00;;;13.65;;
31758;SDS011;36334;51.366;0.020;2022-12-15T09:22:15;25.40;;;10.98;;
31758;SDS011;36334;51.366;0.020;2022-12-15T09:25:02;31.45;;;10.73;;
31758;SDS011;36334;51.366;0.020;2022-12-15T09:27:48;20.60;;;12.95;;
31758;SDS011;36334;51.366;0.020;2022-12-15T09:30:34;18.05;;;11.10;;
31758;SDS011;36334;51.366;0.020;2022-12-15T09:33:20;16.70;;;11.13;;
31758;SDS011;36334;51.366;0.020;2022-12-15T09:36:07;24.42;;;14.05;;
31758;SDS011;36334;51.366;0.020;2022-12-15T09:38:54;24.13;;;12.20;;
31758;SDS011;36334;51.366;0.020;2022-12-15T09:41:40;23.48;;;11.77;;
31758;SDS011;36334;51.366;0.020;2022-12-15T09:44:33;25.88;;;12.38;;
31758;SDS011;36334;51.366;0.020;2022-12-15T09:47:39;25.88;;;13.02;;
31758;SDS011;36334;51.366;0.020;2022-12-15T09:50:34;23.20;;;11.50;;
31758;SDS011;36334;51.366;0.020;2022-12-15T09:53:25;22.17;;;13.07;;
31758;SDS011;36334;51.366;0.020;2022-12-15T09:56:36;18.05;;;12.35;;
31758;SDS011;36334;51.366;0.020;2022-12-15T10:06:16;25.55;;;14.45;;
31758;SDS011;36334;51.366;0.020;2022-12-15T10:09:17;24.05;;;14.20;;
31758;SDS011;36334;51.366;0.020;2022-12-15T10:12:20;30.25;;;15.57;;
31758;SDS011;36334;51.366;0.020;2022-12-15T10:15:19;25.67;;;15.02;;
31758;SDS011;36334;51.366;0.020;2022-12-15T10:18:21;64.85;;;30.80;;
31758;SDS011;36334;51.366;0.020;2022-12-15T10:21:11;85.05;;;40.72;;
31758;SDS011;36334;51.366;0.020;2022-12-15T10:24:06;60.63;;;33.72;;
31758;SDS011;36334;51.366;0.020;2022-12-15T10:30:44;32.80;;;20.17;;
31758;SDS011;36334;51.366;0.020;2022-12-15T10:33:39;29.02;;;17.35;;
31758;SDS011;36334;51.366;0.020;2022-12-15T10:36:34;27.35;;;13.68;;
31758;SDS011;36334;51.366;0.020;2022-12-15T10:39:21;21.35;;;13.23;;
31758;SDS011;36334;51.366;0.020;2022-12-15T10:42:23;21.48;;;12.23;;
31758;SDS011;36334;51.366;0.020;2022-12-15T10:45:27;23.20;;;13.07;;
31758;SDS011;36334;51.366;0.020;2022-12-15T10:48:23;21.05;;;10.98;;
31758;SDS011;36334;51.366;0.020;2022-12-15T10:54:26;20.80;;;10.80;;
31758;SDS011;36334;51.366;0.020;2022-12-15T10:57:26;16.13;;;8.95;;
31758;SDS011;36334;51.366;0.020;2022-12-15T11:03:00;25.52;;;11.88;;
31758;SDS011;36334;51.366;0.020;2022-12-15T11:06:13;19.10;;;11.90;;
31758;SDS011;36334;51.366;0.020;2022-12-15T11:09:45;25.05;;;13.02;;
31758;SDS011;36334;51.366;0.020;2022-12-15T11:12:19;19.08;;;11.10;;
31758;SDS011;36334;51.366;0.020;2022-12-15T11:15:37;25.13;;;11.00;;
31758;SDS011;36334;51.366;0.020;2022-12-15T11:25:19;24.40;;;12.80;;
31758;SDS011;36334;51.366;0.020;2022-12-15T11:28:19;22.02;;;12.98;;
31758;SDS011;36334;51.366;0.020;2022-12-15T11:31:21;28.02;;;13.82;;
31758;SDS011;36334;51.366;0.020;2022-12-15T11:34:23;31.83;;;14.32;;
31758;SDS011;36334;51.366;0.020;2022-12-15T11:43:33;28.88;;;16.73;;
31758;SDS011;36334;51.366;0.020;2022-12-15T11:46:39;26.85;;;15.80;;
31758;SDS011;36334;51.366;0.020;2022-12-15T11:49:44;30.10;;;17.95;;
31758;SDS011;36334;51.366;0.020;2022-12-15T11:52:50;26.98;;;17.80;;
31758;SDS011;36334;51.366;0.020;2022-12-15T12:06:13;31.05;;;18.20;;
31758;SDS011;36334;51.366;0.020;2022-12-15T12:15:21;22.17;;;13.32;;
31758;SDS011;36334;51.366;0.020;2022-12-15T12:18:24;21.33;;;12.75;;
31758;SDS011;36334;51.366;0.020;2022-12-15T12:21:18;25.63;;;12.43;;
31758;SDS011;36334;51.366;0.020;2022-12-15T12:24:18;23.67;;;12.50;;
31758;SDS011;36334;51.366;0.020;2022-12-15T12:27:26;16.83;;;12.55;;
31758;SDS011;36334;51.366;0.020;2022-12-15T12:30:22;25.67;;;14.30;;
31758;SDS011;36334;51.366;0.020;2022-12-15T12:33:14;26.10;;;13.95;;
31758;SDS011;36334;51.366;0.020;2022-12-15T12:36:21;25.55;;;13.95;;
31758;SDS011;36334;51.366;0.020;2022-12-15T12:39:08;21.98;;;14.98;;
31758;SDS011;36334;51.366;0.020;2022-12-15T12:42:10;28.65;;;15.57;;
31758;SDS011;36334;51.366;0.020;2022-12-15T12:45:12;34.05;;;14.90;;
31758;SDS011;36334;51.366;0.020;2022-12-15T12:48:01;30.17;;;14.75;;
31758;SDS011;36334;51.366;0.020;2022-12-15T12:57:31;19.88;;;14.30;;
31758;SDS011;36334;51.366;0.020;2022-12-15T13:00:29;22.25;;;13.65;;
31758;SDS011;36334;51.366;0.020;2022-12-15T13:03:18;21.92;;;13.60;;
31758;SDS011;36334;51.366;0.020;2022-12-15T13:15:41;19.88;;;12.82;;
31758;SDS011;36334;51.366;0.020;2022-12-15T13:21:50;20.58;;;14.32;;
31758;SDS011;36334;51.366;0.020;2022-12-15T13:27:35;22.33;;;11.73;;
31758;SDS011;36334;51.366;0.020;2022-12-15T13:30:22;20.17;;;11.27;;
31758;SDS011;36334;51.366;0.020;2022-12-15T13:33:13;20.88;;;13.65;;
31758;SDS011;36334;51.366;0.020;2022-12-15T13:36:02;18.00;;;11.90;;
31758;SDS011;36334;51.366;0.020;2022-12-15T13:38:55;21.85;;;11.73;;
31758;SDS011;36334;51.366;0.020;2022-12-15T13:45:09;16.40;;;9.07;;
31758;SDS011;36334;51.366;0.020;2022-12-15T13:54:14;17.75;;;8.18;;
31758;SDS011;36334;51.366;0.020;2022-12-15T13:57:08;13.50;;;7.70;;
31758;SDS011;36334;51.366;0.020;2022-12-15T14:00:01;13.93;;;7.05;;
31758;SDS011;36334;51.366;0.020;2022-12-15T14:03:06;10.93;;;7.40;;
31758;SDS011;36334;51.366;0.020;2022-12-15T14:05:58;11.68;;;7.35;;
31758;SDS011;36334;51.366;0.020;2022-12-15T14:08:44;15.68;;;8.02;;
31758;SDS011;36334;51.366;0.020;2022-12-15T14:11:35;14.18;;;7.97;;
31758;SDS011;36334;51.366;0.020;2022-12-15T14:19:24;16.63;;;9.63;;
31758;SDS011;36334;51.366;0.020;2022-12-15T14:22:18;15.73;;;10.13;;
31758;SDS011;36334;51.366;0.020;2022-12-15T14:25:24;16.80;;;10.43;;
31758;SDS011;36334;51.366;0.020;2022-12-15T14:28:29;18.83;;;9.82;;
31758;SDS011;36334;51.366;0.020;2022-12-15T14:31:19;17.75;;;10.52;;
31758;SDS011;36334;51.366;0.020;2022-12-15T14:34:07;20.33;;;10.65;;
31758;SDS011;36334;51.366;0.020;2022-12-15T14:37:10;22.40;;;10.68;;
31758;SDS011;36334;51.366;0.020;2022-12-15T14:40:01;18.63;;;9.27;;
31758;SDS011;36334;51.366;0.020;2022-12-15T14:42:48;22.25;;;10.40;;
31758;SDS011;36334;51.366;0.020;2022-12-15T14:45:35;18.10;;;9.75;;
31758;SDS011;36334;51.366;0.020;2022-12-15T14:48:27;15.85;;;10.05;;
31758;SDS011;36334;51.366;0.020;2022-12-15T14:51:40;16.17;;;8.30;;
31758;SDS011;36334;51.366;0.020;2022-12-15T14:54:31;17.98;;;8.05;;
31758;SDS011;36334;51.366;0.020;2022-12-15T14:57:24;14.82;;;8.77;;
31758;SDS011;36334;51.366;0.020;2022-12-15T15:00:24;23.02;;;11.00;;
31758;SDS011;36334;51.366;0.020;2022-12-15T15:08:56;17.75;;;9.50;;
31758;SDS011;36334;51.366;0.020;2022-12-15T15:12:11;18.77;;;10.60;;
31758;SDS011;36334;51.366;0.020;2022-12-15T15:15:03;21.58;;;11.50;;
31758;SDS011;36334;51.366;0.020;2022-12-15T15:17:53;17.23;;;8.80;;
31758;SDS011;36334;51.366;0.020;2022-12-15T15:20:46;13.82;;;8.43;;
31758;SDS011;36334;51.366;0.020;2022-12-15T15:26:24;13.45;;;8.98;;
31758;SDS011;36334;51.366;0.020;2022-12-15T15:32:26;16.35;;;8.55;;
31758;SDS011;36334;51.366;0.020;2022-12-15T15:35:11;18.48;;;9.50;;
31758;SDS011;36334;51.366;0.020;2022-12-15T15:38:00;15.07;;;8.57;;
31758;SDS011;36334;51.366;0.020;2022-12-15T15:43:41;24.40;;;8.70;;
31758;SDS011;36334;51.366;0.020;2022-12-15T15:46:32;13.02;;;7.45;;
31758;SDS011;36334;51.366;0.020;2022-12-15T15:49:19;18.20;;;8.80;;
31758;SDS011;36334;51.366;0.020;2022-12-15T15:52:08;14.10;;;7.93;;
31758;SDS011;36334;51.366;0.020;2022-12-15T15:54:57;16.98;;;8.88;;
31758;SDS011;36334;51.366;0.020;2022-12-15T15:57:44;18.40;;;9.23;;
31758;SDS011;36334;51.366;0.020;2022-12-15T16:00:30;15.68;;;8.00;;
31758;SDS011;36334;51.366;0.020;2022-12-15T16:03:16;15.82;;;8.05;;
31758;SDS011;36334;51.366;0.020;2022-12-15T16:06:03;16.08;;;9.07;;
31758;SDS011;36334;51.366;0.020;2022-12-15T16:08:51;16.15;;;8.35;;
31758;SDS011;36334;51.366;0.020;2022-12-15T16:11:38;11.82;;;8.00;;
31758;SDS011;36334;51.366;0.020;2022-12-15T16:14:25;17.02;;;8.95;;
31758;SDS011;36334;51.366;0.020;2022-12-15T16:17:11;17.45;;;8.52;;
31758;SDS011;36334;51.366;0.020;2022-12-15T16:19:57;14.55;;;8.82;;
31758;SDS011;36334;51.366;0.020;2022-12-15T16:22:46;16.23;;;8.55;;
31758;SDS011;36334;51.366;0.020;2022-12-15T16:25:42;16.52;;;8.70;;
31758;SDS011;36334;51.366;0.020;2022-12-15T16:28:37;16.80;;;9.25;;
31758;SDS011;36334;51.366;0.020;2022-12-15T16:31:27;22.35;;;9.90;;
31758;SDS011;36334;51.366;0.020;2022-12-15T16:34:24;17.40;;;8.98;;
31758;SDS011;36334;51.366;0.020;2022-12-15T16:37:13;18.85;;;8.95;;
31758;SDS011;36334;51.366;0.020;2022-12-15T16:40:18;13.95;;;8.20;;
31758;SDS011;36334;51.366;0.020;2022-12-15T16:43:12;15.95;;;9.35;;
31758;SDS011;36334;51.366;0.020;2022-12-15T16:46:04;15.82;;;8.43;;
31758;SDS011;36334;51.366;0.020;2022-12-15T16:48:51;14.77;;;8.45;;
31758;SDS011;36334;51.366;0.020;2022-12-15T16:51:41;12.98;;;9.43;;
31758;SDS011;36334;51.366;0.020;2022-12-15T16:54:30;11.25;;;8.10;;
31758;SDS011;36334;51.366;0.020;2022-12-15T16:57:16;17.63;;;9.07;;
31758;SDS011;36334;51.366;0.020;2022-12-15T17:00:09;17.73;;;9.27;;
31758;SDS011;36334;51.366;0.020;2022-12-15T17:03:03;16.23;;;9.40;;
31758;SDS011;36334;51.366;0.020;2022-12-15T17:05:52;15.23;;;8.98;;
31758;SDS011;36334;51.366;0.020;2022-12-15T17:08:47;14.00;;;9.27;;
31758;SDS011;36334;51.366;0.020;2022-12-15T17:11:45;23.30;;;11.73;;
31758;SDS011;36334;51.366;0.020;2022-12-15T17:14:41;23.25;;;11.68;;
31758;SDS011;36334;51.366;0.020;2022-12-15T17:17:29;18.17;;;12.18;;
31758;SDS011;36334;51.366;0.020;2022-12-15T17:20:16;12.90;;;8.77;;
31758;SDS011;36334;51.366;0.020;2022-12-15T17:23:15;19.42;;;11.45;;
31758;SDS011;36334;51.366;0.020;2022-12-15T17:26:04;17.42;;;9.05;;
31758;SDS011;36334;51.366;0.020;2022-12-15T17:29:13;19.15;;;10.75;;
31758;SDS011;36334;51.366;0.020;2022-12-15T17:32:08;19.15;;;11.60;;
31758;SDS011;36334;51.366;0.020;2022-12-15T17:34:57;23.13;;;13.18;;
31758;SDS011;36334;51.366;0.020;2022-12-15T17:37:43;24.13;;;13.32;;
31758;SDS011;36334;51.366;0.020;2022-12-15T17:40:29;26.83;;;15.93;;
31758;SDS011;36334;51.366;0.020;2022-12-15T17:43:16;31.90;;;19.88;;
31758;SDS011;36334;51.366;0.020;2022-12-15T17:46:07;34.67;;;20.50;;
31758;SDS011;36334;51.366;0.020;2022-12-15T17:48:56;43.45;;;24.13;;
31758;SDS011;36334;51.366;0.020;2022-12-15T17:51:42;42.15;;;26.05;;
31758;SDS011;36334;51.366;0.020;2022-12-15T17:54:29;44.53;;;27.70;;
31758;SDS011;36334;51.366;0.020;2022-12-15T17:57:15;41.20;;;25.55;;
31758;SDS011;36334;51.366;0.020;2022-12-15T18:00:01;44.38;;;25.08;;
31758;SDS011;36334;51.366;0.020;2022-12-15T18:02:56;36.75;;;22.20;;
31758;SDS011;36334;51.366;0.020;2022-12-15T18:05:45;35.13;;;21.02;;
31758;SDS011;36334;51.366;0.020;2022-12-15T18:08:32;37.80;;;21.88;;
31758;SDS011;36334;51.366;0.020;2022-12-15T18:11:19;36.17;;;21.55;;
31758;SDS011;36334;51.366;0.020;2022-12-15T18:14:10;33.67;;;19.83;;
31758;SDS011;36334;51.366;0.020;2022-12-15T18:16:59;30.83;;;17.42;;
31758;SDS011;36334;51.366;0.020;2022-12-15T18:19:45;27.95;;;14.70;;
31758;SDS011;36334;51.366;0.020;2022-12-15T18:22:31;36.17;;;17.85;;
31758;SDS011;36334;51.366;0.020;2022-12-15T18:28:09;26.25;;;19.10;;
31758;SDS011;36334;51.366;0.020;2022-12-15T18:31:20;47.08;;;24.13;;
31758;SDS011;36334;51.366;0.020;2022-12-15T18:34:19;37.20;;;23.48;;
31758;SDS011;36334;51.366;0.020;2022-12-15T18:37:13;41.28;;;24.30;;
31758;SDS011;36334;51.366;0.020;2022-12-15T18:40:04;42.72;;;21.67;;
31758;SDS011;36334;51.366;0.020;2022-12-15T18:42:50;31.50;;;18.50;;
31758;SDS011;36334;51.366;0.020;2022-12-15T18:45:38;35.55;;;21.27;;
31758;SDS011;36334;51.366;0.020;2022-12-15T18:48:33;32.53;;;20.98;;
31758;SDS011;36334;51.366;0.020;2022-12-15T18:51:20;35.97;;;20.63;;
31758;SDS011;36334;51.366;0.020;2022-12-15T18:54:16;39.03;;;22.17;;
31758;SDS011;36334;51.366;0.020;2022-12-15T18:57:28;38.97;;;21.80;;
31758;SDS011;36334;51.366;0.020;2022-12-15T19:00:17;40.08;;;25.55;;
31758;SDS011;36334;51.366;0.020;2022-12-15T19:03:06;35.88;;;22.65;;
31758;SDS011;36334;51.366;0.020;2022-12-15T19:05:54;41.90;;;24.20;;
31758;SDS011;36334;51.366;0.020;2022-12-15T19:08:44;35.40;;;21.00;;
31758;SDS011;36334;51.366;0.020;2022-12-15T19:11:30;41.05;;;20.73;;
31758;SDS011;36334;51.366;0.020;2022-12-15T19:14:17;35.97;;;19.70;;
31758;SDS011;36334;51.366;0.020;2022-12-15T19:17:24;31.15;;;19.25;;
31758;SDS011;36334;51.366;0.020;2022-12-15T19:23:33;27.20;;;14.93;;
31758;SDS011;36334;51.366;0.020;2022-12-15T19:26:19;24.35;;;12.80;;
31758;SDS011;36334;51.366;0.020;2022-12-15T19:29:20;26.00;;;14.90;;
31758;SDS011;36334;51.366;0.020;2022-12-15T19:32:07;23.90;;;13.90;;
31758;SDS011;36334;51.366;0.020;2022-12-15T19:34:53;32.85;;;15.40;;
31758;SDS011;36334;51.366;0.020;2022-12-15T19:37:40;24.42;;;14.88;;
31758;SDS011;36334;51.366;0.020;2022-12-15T19:40:32;20.00;;;12.75;;
31758;SDS011;36334;51.366;0.020;2022-12-15T19:43:20;23.17;;;13.85;;
31758;SDS011;36334;51.366;0.020;2022-12-15T19:46:14;20.52;;;13.23;;
31758;SDS011;36334;51.366;0.020;2022-12-15T19:49:02;19.25;;;12.45;;
31758;SDS011;36334;51.366;0.020;2022-12-15T19:51:48;20.98;;;12.63;;
31758;SDS011;36334;51.366;0.020;2022-12-15T19:54:35;20.45;;;13.77;;
31758;SDS011;36334;51.366;0.020;2022-12-15T19:57:21;24.23;;;12.75;;
31758;SDS011;36334;51.366;0.020;2022-12-15T20:00:16;20.58;;;13.20;;
31758;SDS011;36334;51.366;0.020;2022-12-15T20:03:09;27.83;;;13.30;;
31758;SDS011;36334;51.366;0.020;2022-12-15T20:05:55;27.73;;;14.35;;
31758;SDS011;36334;51.366;0.020;2022-12-15T20:08:44;27.42;;;15.15;;
31758;SDS011;36334;51.366;0.020;2022-12-15T20:11:32;29.25;;;15.38;;